TimeEDT,TemperatureF,Dew PointF,Humidity,Sea Level PressureIn,VisibilityMPH,Wind Direction,Wind SpeedMPH,Gust SpeedMPH,PrecipitationIn,Events,Conditions,WindDirDegrees,DateUTC
12:58 AM,80.6,78.8,94,29.98,10.0,South,6.9,-,N/A,,Partly Cloudy,190,2013-09-03 04:58:00
1:58 AM,80.2,78.4,94,29.98,10.0,South,8.1,-,N/A,,Partly Cloudy,190,2013-09-03 05:58:00
2:29 AM,78.8,78.8,100,29.96,8.0,South,10.4,-,N/A,Rain,Light Rain,180,2013-09-03 06:29:00
2:50 AM,78.8,78.8,100,29.96,10.0,South,8.1,-,N/A,,Mostly Cloudy,170,2013-09-03 06:50:00
2:55 AM,78.8,78.8,100,29.96,10.0,SSE,3.5,-,N/A,,Mostly Cloudy,160,2013-09-03 06:55:00
2:58 AM,78.3,78.3,100,29.97,10.0,SSE,3.5,-,0.04,,Mostly Cloudy,160,2013-09-03 06:58:00
2:59 AM,78.8,78.8,100,29.96,10.0,SSE,2.3,-,N/A,Rain,Light Rain,150,2013-09-03 06:59:00
3:09 AM,78.8,78.8,100,29.96,10.0,SSE,8.1,-,N/A,Rain,Light Rain,160,2013-09-03 07:09:00
3:24 AM,78.8,78.8,100,29.95,10.0,South,8.1,-,N/A,Rain,Light Rain,170,2013-09-03 07:24:00
3:25 AM,78.8,78.8,100,29.95,10.0,South,8.1,-,N/A,,Mostly Cloudy,170,2013-09-03 07:25:00
3:58 AM,78.4,78.4,100,29.96,10.0,South,8.1,-,0.02,,Clear,190,2013-09-03 07:58:00
4:53 AM,78.8,78.8,100,29.95,10.0,North,5.8,-,N/A,,Mostly Cloudy,350,2013-09-03 08:53:00
4:58 AM,78.6,78.4,99,29.96,10.0,North,4.6,-,N/A,,Mostly Cloudy,350,2013-09-03 08:58:00
5:02 AM,78.8,78.8,100,29.95,10.0,North,5.8,-,N/A,Thunderstorm,Thunderstorm,10,2013-09-03 09:02:00
5:07 AM,77.0,77.0,100,29.96,10.0,North,2.3,-,N/A,Thunderstorm,Thunderstorm,350,2013-09-03 09:07:00
5:17 AM,77.0,77.0,100,29.95,10.0,NNE,2.3,-,N/A,Thunderstorm,Thunderstorm,20,2013-09-03 09:17:00
5:26 AM,77.0,77.0,100,29.95,10.0,NE,3.5,-,N/A,Thunderstorm,Scattered Clouds,40,2013-09-03 09:26:00
5:58 AM,76.1,76.1,100,29.97,10.0,Calm,Calm,-,N/A,,Clear,0,2013-09-03 09:58:00
6:58 AM,75.6,75.6,100,29.99,10.0,SE,2.3,-,N/A,,Partly Cloudy,140,2013-09-03 10:58:00
7:58 AM,77.0,77.0,100,29.99,10.0,ESE,1.2,-,N/A,,Clear,120,2013-09-03 11:58:00
8:58 AM,82.8,80.2,92,30.00,10.0,Calm,Calm,-,N/A,,Clear,0,2013-09-03 12:58:00
9:58 AM,85.5,80.8,86,30.02,10.0,WNW,1.2,-,N/A,,Partly Cloudy,300,2013-09-03 13:58:00
10:37 AM,87.8,80.6,79,30.03,10.0,Variable,3.5,-,N/A,,Light Drizzle,0,2013-09-03 14:37:00
10:50 AM,87.8,80.6,79,30.03,10.0,WNW,2.3,-,N/A,,Clear,300,2013-09-03 14:50:00
10:58 AM,88.7,80.8,77,30.04,10.0,NW,3.5,-,0.00,,Partly Cloudy,310,2013-09-03 14:58:00
11:35 AM,87.8,78.8,75,30.05,10.0,WNW,6.9,-,N/A,Rain,Light Rain,300,2013-09-03 15:35:00
11:58 AM,84.9,76.5,76,30.05,9.0,SW,4.6,-,0.08,Rain-Thunderstorm,Light Rain,220,2013-09-03 15:58:00
12:08 PM,84.2,75.2,74,30.04,10.0,Variable,2.3,-,N/A,,Partly Cloudy,0,2013-09-03 16:08:00
12:58 PM,90.9,78.3,66,30.04,10.0,WNW,4.6,-,0.02,,Clear,290,2013-09-03 16:58:00
1:58 PM,91.0,80.1,70,30.02,10.0,SW,5.8,-,N/A,,Scattered Clouds,220,2013-09-03 17:58:00
2:58 PM,91.8,78.1,64,29.99,10.0,Variable,5.8,-,N/A,,Clear,0,2013-09-03 18:58:00
3:58 PM,89.4,77.9,69,29.97,10.0,South,10.4,-,N/A,,Partly Cloudy,190,2013-09-03 19:58:00
4:58 PM,87.8,78.1,73,29.96,10.0,SSW,11.5,-,N/A,,Clear,210,2013-09-03 20:58:00
5:58 PM,88.5,77.5,70,29.96,10.0,SW,9.2,-,N/A,,Clear,220,2013-09-03 21:58:00
6:58 PM,87.4,77.0,71,29.96,10.0,WSW,8.1,-,N/A,,Partly Cloudy,240,2013-09-03 22:58:00
7:58 PM,84.9,75.9,74,29.98,10.0,SW,5.8,-,N/A,,Clear,230,2013-09-03 23:58:00
8:58 PM,83.5,75.9,78,30.00,10.0,West,3.5,-,N/A,,Partly Cloudy,260,2013-09-04 00:58:00
9:58 PM,82.6,77.4,84,30.01,10.0,WSW,2.3,-,N/A,,Scattered Clouds,240,2013-09-04 01:58:00
10:58 PM,80.8,77.0,88,30.02,10.0,West,2.3,-,N/A,,Clear,280,2013-09-04 02:58:00
11:58 PM,78.8,74.5,87,30.02,10.0,South,1.2,-,N/A,,Clear,190,2013-09-04 03:58:00